Four Mile Lake, Michigan
Current Conditions -  °F | °C
As of 4:53 AM on Sunday 26 Oct 2014 (Local Time) from KARB Reporting Station
Clear Clear  
Wind Chill: 41°   Ceiling: Unl
Heat Index: 45°   Visibility: 10mi
Dew Point: 29°   Wind: 8mph
Humidity: 53%   Direction: 290°WNW
Pressure: 29.87"   Gusts: NA
Location:  42.3528°N, 83.8974°W
Report Text: KARB 260853Z AUTO 29007KT 10SM CLR 07/M02 A2987 RMK AO2 SLP115 T00721017 51008
Loading
Personal Weather Stations






























Interactive Weather Map
Tropical Storm Tracking
New forecast layout! Learn more

10-Day Weather Forecast

Advertisements
Track Severe Weather on mobile